Time;durP1;ratioP1;P1;durP2;ratioP2;P2;SDS_P1;SDS_P2;PMS_P1;PMS_P2;Temp;Humidity;BMP_temperature;BMP_pressure;BME280_temperature;BME280_humidity;BME280_pressure;Samples;Min_cycle;Max_cycle;Signal;HPM_P1;HPM_P2
2023/12/13 00:01:38;;;;;;;;;;;;;;;6.60;84.70;99544.09;5484455;32;34799;-72
2023/12/13 00:04:41;;;;;;;;;;;;;;;6.61;87.20;99533.59;5486337;32;34818;-69
2023/12/13 00:07:43;;;;;;;;;;;;;;;7.90;81.54;99526.78;5484496;32;34825;-68
2023/12/13 00:10:45;;;;;;;;;;;;;;;7.99;77.89;99517.72;5481776;32;34827;-75
2023/12/13 00:13:47;;;;;;;;;;;;;;;7.98;79.10;99516.84;5485512;32;35482;-73
2023/12/13 00:16:51;;;;;;;;;;;;;;;7.62;81.08;99500.94;5485959;32;34295;-69
2023/12/13 00:19:53;;;;;;;;;;;;;;;7.49;81.53;99492.75;5478923;32;34234;-69
2023/12/13 00:22:55;;;;;;;;;;;;;;;8.21;78.34;99487.09;5486473;32;35314;-70
2023/12/13 00:25:58;;;;;;;;;;;;;;;7.60;81.90;99490.53;5493136;32;34915;-73
2023/12/13 00:29:00;;;;;;;;;;;;;;;7.20;83.33;99479.97;5482527;32;35229;-70
2023/12/13 00:32:02;;;;;;;;;;;;;;;7.87;80.52;99475.44;5478979;32;34748;-73
2023/12/13 00:35:04;;;;;;;;;;;;;;;5.97;88.53;99494.97;5484237;32;35074;-69
2023/12/13 00:38:08;;;;;;;;;;;;;;;6.48;87.69;99494.00;5486939;32;34880;-69
2023/12/13 00:41:11;;;;;;;;;;;;;;;6.75;86.54;99466.03;5494030;32;34816;-69
2023/12/13 00:44:13;;;;;;;;;;;;;;;7.69;83.33;99472.75;5483078;32;34848;-74
2023/12/13 00:47:15;;;;;;;;;;;;;;;8.21;80.35;99475.75;5489649;32;34814;-69
2023/12/13 00:50:17;;;;;;;;;;;;;;;8.51;76.18;99468.34;5491544;32;34361;-69
2023/12/13 00:53:19;;;;;;;;;;;;;;;7.39;79.03;99469.63;5487307;32;34899;-74
2023/12/13 00:56:21;;;;;;;;;;;;;;;7.42;81.16;99457.31;5470774;32;34987;-73
2023/12/13 00:59:24;;;;;;;;;;;;;;;7.35;81.98;99466.31;5487770;32;34682;-74
2023/12/13 01:02:28;;;;;;;;;;;;;;;7.46;80.10;99456.25;5493135;32;34925;-74
2023/12/13 01:05:31;;;;;;;;;;;;;;;6.82;82.59;99461.41;5492484;32;34659;-68
2023/12/13 01:08:33;;;;;;;;;;;;;;;7.11;81.85;99462.06;5483605;32;34903;-69
2023/12/13 01:11:35;;;;;;;;;;;;;;;6.71;84.25;99445.31;5479865;32;35626;-69
2023/12/13 01:14:42;;;;;;;;;;;;;;;7.37;84.09;99445.31;5488387;32;35045;-71
2023/12/13 01:17:44;;;;;;;;;;;;;;;7.09;83.15;99437.75;5485465;32;34277;-73
2023/12/13 01:20:46;;;;;;;;;;;;;;;6.91;85.32;99434.09;5486182;32;34223;-74
2023/12/13 01:23:48;;;;;;;;;;;;;;;7.67;81.27;99428.38;5491188;32;35371;-68
2023/12/13 01:26:50;;;;;;;;;;;;;;;7.01;82.07;99423.22;5486550;32;35546;-75
2023/12/13 01:29:52;;;;;;;;;;;;;;;7.05;82.01;99419.56;5494715;32;34496;-72
2023/12/13 01:32:54;;;;;;;;;;;;;;;7.09;81.73;99411.63;5486634;32;34982;-73
2023/12/13 01:35:57;;;;;;;;;;;;;;;6.88;82.97;99416.78;5496074;32;34244;-70
2023/12/13 01:38:59;;;;;;;;;;;;;;;7.33;81.15;99415.84;5472681;32;35142;-69
2023/12/13 01:42:01;;;;;;;;;;;;;;;7.22;83.20;99402.38;5484130;32;35696;-69
2023/12/13 01:45:03;;;;;;;;;;;;;;;7.42;80.78;99397.16;5490721;32;35435;-73
2023/12/13 01:48:06;;;;;;;;;;;;;;;7.09;81.87;99393.34;5483600;32;34762;-69
2023/12/13 01:51:08;;;;;;;;;;;;;;;7.70;81.02;99396.00;5488578;32;35325;-73
2023/12/13 01:54:13;;;;;;;;;;;;;;;6.81;83.86;99386.59;5487625;32;34794;-69
2023/12/13 01:57:15;;;;;;;;;;;;;;;6.97;84.38;99385.06;5469869;32;34218;-73
2023/12/13 02:00:17;;;;;;;;;;;;;;;7.19;82.43;99377.19;5488615;32;34281;-74
2023/12/13 02:03:19;;;;;;;;;;;;;;;6.94;84.90;99374.72;5482102;32;34642;-73
2023/12/13 02:06:21;;;;;;;;;;;;;;;6.38;85.92;99372.59;5469623;32;35037;-73
2023/12/13 02:09:23;;;;;;;;;;;;;;;7.10;83.55;99361.91;5479878;32;34646;-75
2023/12/13 02:12:25;;;;;;;;;;;;;;;7.19;81.58;99352.84;5487013;32;34963;-68
2023/12/13 02:15:27;;;;;;;;;;;;;;;7.25;80.97;99348.19;5485643;32;34685;-68
2023/12/13 02:18:30;;;;;;;;;;;;;;;7.33;80.97;99342.66;5484895;32;34231;-75
2023/12/13 02:21:32;;;;;;;;;;;;;;;7.23;80.79;99336.13;5483508;32;35242;-70
2023/12/13 02:24:35;;;;;;;;;;;;;;;7.35;80.21;99332.16;5486363;32;35265;-74
2023/12/13 02:27:37;;;;;;;;;;;;;;;7.12;78.35;99326.12;5481986;32;35027;-74
2023/12/13 02:30:42;;;;;;;;;;;;;;;6.38;83.29;99320.41;5478402;32;34966;-68
2023/12/13 02:33:44;;;;;;;;;;;;;;;7.01;81.11;99325.69;5482677;32;33388;-72
2023/12/13 02:36:48;;;;;;;;;;;;;;;6.19;83.85;99317.66;5475863;32;35294;-69
2023/12/13 02:39:50;;;;;;;;;;;;;;;6.32;84.36;99304.97;5485674;32;35464;-70
2023/12/13 02:42:52;;;;;;;;;;;;;;;6.91;80.79;99301.72;5483713;32;34892;-68
2023/12/13 02:45:54;;;;;;;;;;;;;;;7.06;80.47;99301.09;5484916;32;34781;-69
2023/12/13 02:48:57;;;;;;;;;;;;;;;6.99;81.80;99301.41;5489927;32;35177;-75
2023/12/13 02:52:00;;;;;;;;;;;;;;;6.32;84.86;99289.31;5482190;32;34689;-67
2023/12/13 02:55:02;;;;;;;;;;;;;;;6.05;85.20;99287.75;5486641;32;35619;-73
2023/12/13 02:58:04;;;;;;;;;;;;;;;6.08;87.01;99285.91;5482971;32;34903;-73
2023/12/13 03:01:07;;;;;;;;;;;;;;;6.30;84.35;99282.44;5485121;32;34854;-69
2023/12/13 03:04:09;;;;;;;;;;;;;;;6.09;86.95;99273.69;5490508;32;35453;-70
2023/12/13 03:07:11;;;;;;;;;;;;;;;6.18;84.62;99278.56;5477688;32;34726;-73
2023/12/13 03:10:14;;;;;;;;;;;;;;;5.85;87.40;99296.31;5491374;32;34525;-73
2023/12/13 03:13:16;;;;;;;;;;;;;;;5.82;87.41;99286.84;5484939;32;34229;-73
2023/12/13 03:16:24;;;;;;;;;;;;;;;5.74;87.50;99290.66;5491206;32;35022;-70
2023/12/13 03:19:51;;;;;;;;;;;;;;;6.22;84.25;99282.75;5487891;32;34450;-72
2023/12/13 03:23:23;;;;;;;;;;;;;;;6.54;85.44;99267.59;5467370;32;34564;-68
2023/12/13 03:26:52;;;;;;;;;;;;;;;6.43;83.44;99258.41;5483689;32;35753;-74
2023/12/13 03:30:15;;;;;;;;;;;;;;;6.03;84.56;99263.50;5484675;32;35311;-73
2023/12/13 03:33:17;;;;;;;;;;;;;;;5.89;87.61;99270.06;5478108;32;34981;-73
2023/12/13 03:36:19;;;;;;;;;;;;;;;6.21;84.77;99254.97;5490651;32;34819;-68
2023/12/13 03:39:22;;;;;;;;;;;;;;;6.93;82.49;99254.66;5485243;32;34252;-72
2023/12/13 03:42:32;;;;;;;;;;;;;;;7.07;82.05;99249.69;5484890;32;35143;-67
2023/12/13 03:45:55;;;;;;;;;;;;;;;6.92;82.07;99248.56;5454524;32;35514;-75
2023/12/13 03:49:16;;;;;;;;;;;;;;;6.78;81.83;99240.47;5473148;32;35330;-74
2023/12/13 03:52:54;;;;;;;;;;;;;;;6.97;81.22;99233.56;5416081;32;35062;-74
2023/12/13 03:56:11;;;;;;;;;;;;;;;6.14;84.07;99227.41;5426649;32;34086;-67
2023/12/13 03:59:13;;;;;;;;;;;;;;;6.42;86.97;99220.19;5431189;32;35377;-68
2023/12/13 04:02:15;;;;;;;;;;;;;;;6.56;83.04;99205.72;5424223;32;34378;-68
2023/12/13 04:05:17;;;;;;;;;;;;;;;6.75;82.08;99202.25;5426879;32;35389;-70
2023/12/13 04:08:19;;;;;;;;;;;;;;;7.16;81.32;99207.50;5426680;32;34845;-70
2023/12/13 04:11:21;;;;;;;;;;;;;;;6.10;85.08;99223.22;5423999;32;35009;-75
2023/12/13 04:14:24;;;;;;;;;;;;;;;6.07;85.82;99213.78;5425403;32;34568;-69
2023/12/13 04:17:26;;;;;;;;;;;;;;;7.12;82.30;99198.06;5421931;32;34751;-68
2023/12/13 04:20:28;;;;;;;;;;;;;;;6.49;82.91;99211.19;5425196;32;34760;-74
2023/12/13 04:23:31;;;;;;;;;;;;;;;6.18;86.01;99208.09;5418697;32;35327;-71
2023/12/13 04:26:33;;;;;;;;;;;;;;;6.19;85.11;99209.84;5417226;32;35023;-73
2023/12/13 04:29:35;;;;;;;;;;;;;;;5.89;87.56;99209.22;5438737;32;35322;-68
2023/12/13 04:32:38;;;;;;;;;;;;;;;6.37;85.91;99208.22;5443929;32;34894;-71
2023/12/13 04:35:40;;;;;;;;;;;;;;;5.87;87.57;99204.09;5448243;32;35064;-74
2023/12/13 04:38:42;;;;;;;;;;;;;;;5.36;90.61;99193.87;5442473;32;35747;-69
2023/12/13 04:41:44;;;;;;;;;;;;;;;5.97;89.07;99191.56;5444240;32;34772;-73
2023/12/13 04:44:47;;;;;;;;;;;;;;;6.00;89.00;99194.06;5489494;32;35297;-68
2023/12/13 04:47:49;;;;;;;;;;;;;;;5.92;87.81;99196.09;5467272;32;34398;-68
2023/12/13 04:50:51;;;;;;;;;;;;;;;5.63;87.29;99191.97;5493260;32;34851;-75
2023/12/13 04:53:53;;;;;;;;;;;;;;;6.10;87.45;99186.69;5479883;32;35059;-71
2023/12/13 04:56:55;;;;;;;;;;;;;;;5.91;88.59;99183.97;5483719;32;34849;-75
2023/12/13 04:59:57;;;;;;;;;;;;;;;5.59;88.60;99179.97;5479341;32;34273;-73
2023/12/13 05:02:59;;;;;;;;;;;;;;;5.81;88.53;99186.06;5485000;32;34220;-69
2023/12/13 05:06:02;;;;;;;;;;;;;;;6.64;85.16;99195.81;5494513;32;35023;-68
2023/12/13 05:09:04;;;;;;;;;;;;;;;5.90;87.98;99200.50;5487466;32;35063;-74
2023/12/13 05:12:07;;;;;;;;;;;;;;;5.52;89.31;99192.37;5483005;32;34631;-74
2023/12/13 05:15:09;;;;;;;;;;;;;;;5.50;90.00;99193.34;5487081;32;34821;-73
2023/12/13 05:18:11;;;;;;;;;;;;;;;6.11;87.65;99188.41;5486651;32;35008;-73
2023/12/13 05:21:14;;;;;;;;;;;;;;;5.89;88.27;99201.41;5487872;32;34140;-69
2023/12/13 05:24:16;;;;;;;;;;;;;;;6.63;86.17;99204.53;5485249;32;34386;-74
2023/12/13 05:27:18;;;;;;;;;;;;;;;6.61;85.40;99199.38;5477586;32;34453;-74
2023/12/13 05:30:29;;;;;;;;;;;;;;;6.06;88.71;99199.03;5488389;32;34765;-74
2023/12/13 05:33:47;;;;;;;;;;;;;;;6.39;87.40;99199.44;5458535;32;35494;-68
2023/12/13 05:36:50;;;;;;;;;;;;;;;6.30;85.39;99191.13;5447074;32;34674;-70
2023/12/13 05:39:52;;;;;;;;;;;;;;;5.96;88.74;99198.53;5463823;32;34558;-70
2023/12/13 05:42:55;;;;;;;;;;;;;;;6.09;88.27;99190.22;5463486;32;34757;-74
2023/12/13 05:45:57;;;;;;;;;;;;;;;6.31;87.29;99187.59;5473749;32;35817;-73
2023/12/13 05:49:03;;;;;;;;;;;;;;;6.20;87.69;99180.22;5463642;32;34843;-71
2023/12/13 05:52:06;;;;;;;;;;;;;;;6.80;85.64;99170.75;5461741;32;34941;-68
2023/12/13 05:55:08;;;;;;;;;;;;;;;6.16;85.95;99176.88;5477963;32;34759;-70
2023/12/13 05:58:11;;;;;;;;;;;;;;;6.18;88.27;99174.19;5471496;32;34813;-73
2023/12/13 06:01:13;;;;;;;;;;;;;;;5.79;88.50;99173.97;5469294;32;34770;-70
2023/12/13 06:04:15;;;;;;;;;;;;;;;5.46;89.65;99157.88;5468004;32;34477;-68
2023/12/13 06:07:20;;;;;;;;;;;;;;;6.33;87.27;99163.16;5472872;32;34790;-68
2023/12/13 06:10:22;;;;;;;;;;;;;;;5.86;89.47;99165.88;5459023;32;34560;-69
2023/12/13 06:13:24;;;;;;;;;;;;;;;5.92;89.25;99170.00;5473771;32;35158;-66
2023/12/13 06:16:26;;;;;;;;;;;;;;;6.39;88.23;99157.69;5458832;32;35465;-67
2023/12/13 06:19:32;;;;;;;;;;;;;;;6.93;86.53;99143.16;5466381;32;34526;-66
2023/12/13 06:22:34;;;;;;;;;;;;;;;6.99;84.19;99136.84;5474327;32;34774;-70
2023/12/13 06:25:36;;;;;;;;;;;;;;;6.46;85.41;99133.03;5476783;32;35374;-72
2023/12/13 06:28:38;;;;;;;;;;;;;;;6.31;86.36;99138.88;5468156;32;34258;-72
2023/12/13 06:31:40;;;;;;;;;;;;;;;6.11;87.11;99137.06;5473552;32;34761;-75
2023/12/13 06:34:42;;;;;;;;;;;;;;;6.59;86.22;99132.50;5469480;32;35305;-65
2023/12/13 06:37:44;;;;;;;;;;;;;;;6.06;88.66;99135.59;5477280;32;34830;-71
2023/12/13 06:40:46;;;;;;;;;;;;;;;6.24;87.07;99145.25;5473462;32;34431;-71
2023/12/13 06:43:48;;;;;;;;;;;;;;;6.33;87.50;99141.44;5479884;32;34475;-72
2023/12/13 06:46:50;;;;;;;;;;;;;;;6.12;87.83;99157.06;5487984;32;34355;-76
2023/12/13 06:49:52;;;;;;;;;;;;;;;6.41;87.56;99153.22;5485391;32;35494;-72
2023/12/13 06:52:56;;;;;;;;;;;;;;;5.78;88.68;99160.09;5471221;32;34503;-75
2023/12/13 06:55:59;;;;;;;;;;;;;;;6.60;89.77;99150.69;5482993;32;34643;-72
2023/12/13 06:59:01;;;;;;;;;;;;;;;6.58;86.34;99146.47;5479729;32;35316;-70
2023/12/13 07:02:03;;;;;;;;;;;;;;;5.87;88.09;99167.59;5480626;32;36182;-70
2023/12/13 07:05:10;;;;;;;;;;;;;;;6.30;87.07;99147.59;5485432;32;34705;-73
2023/12/13 07:08:13;;;;;;;;;;;;;;;6.18;87.12;99145.50;5487440;32;34656;-73
2023/12/13 07:11:16;;;;;;;;;;;;;;;6.93;86.10;99139.72;5483489;32;35613;-71
2023/12/13 07:14:19;;;;;;;;;;;;;;;6.30;88.40;99147.59;5488455;32;34662;-70
2023/12/13 07:17:23;;;;;;;;;;;;;;;6.95;84.81;99136.09;5482804;32;32950;-71
2023/12/13 07:20:26;;;;;;;;;;;;;;;6.10;86.18;99144.97;5484009;32;34892;-72
2023/12/13 07:23:31;;;;;;;;;;;;;;;6.59;87.37;99143.78;5485992;32;34364;-74
2023/12/13 07:26:33;;;;;;;;;;;;;;;7.02;83.99;99148.00;5454913;32;36198;-72
2023/12/13 07:29:37;;;;;;;;;;;;;;;6.62;87.02;99137.56;5469961;32;36023;-74
2023/12/13 07:32:40;;;;;;;;;;;;;;;6.97;82.71;99133.44;5465708;32;34955;-69
2023/12/13 07:35:47;;;;;;;;;;;;;;;7.00;83.35;99138.53;5486131;32;35365;-74
2023/12/13 07:38:49;;;;;;;;;;;;;;;7.07;82.97;99138.19;5487243;32;33780;-74
2023/12/13 07:41:50;;;;;;;;;;;;;;;6.42;85.38;99139.28;5489623;32;34887;-73
2023/12/13 07:44:52;;;;;;;;;;;;;;;7.27;82.21;99126.81;5487080;32;35856;-71
2023/12/13 07:47:54;;;;;;;;;;;;;;;7.85;79.54;99133.72;5485895;32;34555;-68
2023/12/13 07:51:14;;;;;;;;;;;;;;;7.60;78.82;99123.59;5489778;32;33036;-88
2023/12/13 07:54:16;;;;;;;;;;;;;;;7.10;80.36;99136.38;5485455;32;34610;-71
2023/12/13 07:57:21;;;;;;;;;;;;;;;7.66;78.78;99122.44;5475772;32;35303;-69
2023/12/13 08:00:23;;;;;;;;;;;;;;;7.01;81.12;99130.59;5488636;32;34125;-75
2023/12/13 08:03:24;;;;;;;;;;;;;;;6.62;82.00;99121.91;5485481;32;34239;-73
2023/12/13 08:06:27;;;;;;;;;;;;;;;7.66;79.02;99109.34;5491847;32;34251;-72
2023/12/13 08:09:30;;;;;;;;;;;;;;;7.10;81.50;99103.25;5490226;32;34852;-78
2023/12/13 08:12:34;;;;;;;;;;;;;;;7.58;80.54;99087.03;5488911;32;34328;-71
2023/12/13 08:15:36;;;;;;;;;;;;;;;7.49;78.96;99095.31;5478450;32;34022;-74
2023/12/13 08:18:41;;;;;;;;;;;;;;;7.27;81.12;99097.22;5488674;32;35904;-76
2023/12/13 08:21:44;;;;;;;;;;;;;;;7.17;79.91;99085.53;5487313;32;35333;-70
2023/12/13 08:24:49;;;;;;;;;;;;;;;6.85;82.21;99093.03;5483523;32;35893;-72
2023/12/13 08:27:51;;;;;;;;;;;;;;;7.10;80.09;99087.56;5485880;32;35414;-77
2023/12/13 08:30:53;;;;;;;;;;;;;;;7.32;81.06;99085.66;5474335;32;35670;-72
2023/12/13 08:34:04;;;;;;;;;;;;;;;7.50;78.96;99089.19;5474888;32;34250;-79
2023/12/13 08:37:07;;;;;;;;;;;;;;;7.92;80.53;99085.44;5485726;32;34263;-76
2023/12/13 08:40:10;;;;;;;;;;;;;;;7.94;77.07;99080.13;5477409;32;36527;-72
2023/12/13 08:43:12;;;;;;;;;;;;;;;8.12;76.09;99081.84;5470006;32;35645;-72
2023/12/13 08:46:15;;;;;;;;;;;;;;;8.25;74.35;99093.37;5468837;32;34983;-72
2023/12/13 08:49:18;;;;;;;;;;;;;;;7.62;76.99;99092.13;5489560;32;35732;-68
2023/12/13 08:52:21;;;;;;;;;;;;;;;8.09;76.37;99085.44;5468934;32;34180;-69
2023/12/13 08:55:25;;;;;;;;;;;;;;;7.75;78.42;99090.62;5491412;32;35652;-72
2023/12/13 08:58:29;;;;;;;;;;;;;;;7.55;77.77;99092.44;5485499;32;34805;-72
2023/12/13 09:01:31;;;;;;;;;;;;;;;7.50;78.96;99088.34;5489606;32;35695;-72
2023/12/13 09:04:34;;;;;;;;;;;;;;;7.31;79.98;99101.41;5490045;32;35402;-69
2023/12/13 09:07:41;;;;;;;;;;;;;;;7.55;78.40;99092.44;5482876;32;36173;-68
2023/12/13 09:10:46;;;;;;;;;;;;;;;7.80;77.55;99081.66;5480820;32;37271;-75
2023/12/13 09:13:48;;;;;;;;;;;;;;;8.29;75.87;99083.59;5483317;32;37423;-70
2023/12/13 09:16:51;;;;;;;;;;;;;;;7.58;77.30;99081.81;5491207;32;34901;-77
2023/12/13 09:19:53;;;;;;;;;;;;;;;7.56;77.25;99074.97;5481716;32;35271;-79
2023/12/13 09:22:55;;;;;;;;;;;;;;;7.92;76.54;99080.22;5484365;32;35397;-73
2023/12/13 09:25:59;;;;;;;;;;;;;;;7.83;76.56;99072.78;5480494;32;34581;-69
2023/12/13 09:29:01;;;;;;;;;;;;;;;7.36;78.80;99075.91;5482603;32;35293;-71
2023/12/13 09:32:03;;;;;;;;;;;;;;;7.51;76.77;99075.19;5487465;32;34601;-69
2023/12/13 09:35:06;;;;;;;;;;;;;;;8.09;75.34;99080.19;5483520;32;34224;-76
2023/12/13 09:38:08;;;;;;;;;;;;;;;7.87;76.20;99080.41;5478176;32;34315;-71
2023/12/13 09:41:10;;;;;;;;;;;;;;;8.24;75.40;99086.44;5487940;32;37669;-81
2023/12/13 09:44:12;;;;;;;;;;;;;;;7.23;77.02;99080.00;5471600;32;36649;-69
2023/12/13 09:47:14;;;;;;;;;;;;;;;7.65;76.76;99074.50;5486231;32;35911;-80
2023/12/13 09:50:18;;;;;;;;;;;;;;;7.52;78.42;99076.88;5446141;32;35100;-69
2023/12/13 09:53:21;;;;;;;;;;;;;;;8.21;75.13;99077.91;5464424;32;35397;-75
2023/12/13 09:56:23;;;;;;;;;;;;;;;8.37;73.37;99078.84;5483330;32;34929;-74
2023/12/13 09:59:25;;;;;;;;;;;;;;;7.87;75.10;99075.19;5482377;32;34250;-70
2023/12/13 10:02:29;;;;;;;;;;;;;;;8.12;74.08;99077.44;5479448;32;34259;-72
2023/12/13 10:05:32;;;;;;;;;;;;;;;8.35;73.33;99076.31;5480254;32;35343;-73
2023/12/13 10:08:34;;;;;;;;;;;;;;;8.47;72.43;99074.84;5484108;32;34697;-68
2023/12/13 10:11:38;;;;;;;;;;;;;;;8.12;74.38;99074.84;5483705;32;36445;-76
2023/12/13 10:14:40;;;;;;;;;;;;;;;8.63;70.87;99074.88;5491391;32;33670;-73
2023/12/13 10:17:42;;;;;;;;;;;;;;;7.96;72.18;99079.13;5480547;32;35582;-74
2023/12/13 10:20:49;;;;;;;;;;;;;;;7.76;74.65;99074.00;5449211;32;1261898;-73
2023/12/13 10:23:53;;;;;;;;;;;;;;;7.69;76.26;99065.63;5478545;32;34882;-74
2023/12/13 10:26:55;;;;;;;;;;;;;;;7.90;76.37;99061.09;5479442;32;34505;-68
2023/12/13 10:29:57;;;;;;;;;;;;;;;7.92;75.78;99059.28;5485792;32;34392;-71
2023/12/13 10:32:59;;;;;;;;;;;;;;;7.11;78.59;99046.59;5463862;32;34213;-71
2023/12/13 10:36:04;;;;;;;;;;;;;;;7.91;76.51;99048.87;5478480;32;35913;-69
2023/12/13 10:39:07;;;;;;;;;;;;;;;8.80;72.04;99034.72;5482917;32;34354;-76
2023/12/13 10:42:09;;;;;;;;;;;;;;;8.07;74.01;99037.56;5471336;32;34475;-72
2023/12/13 10:45:11;;;;;;;;;;;;;;;7.56;75.38;99046.22;5488277;32;35655;-70
2023/12/13 10:48:16;;;;;;;;;;;;;;;8.29;73.40;99036.47;5464287;32;34278;-68
2023/12/13 10:51:18;;;;;;;;;;;;;;;7.99;74.28;99029.25;5464573;32;34447;-70
2023/12/13 10:54:20;;;;;;;;;;;;;;;8.29;73.66;99024.22;5456478;32;34692;-72
2023/12/13 10:57:22;;;;;;;;;;;;;;;8.87;71.72;99025.59;5454870;32;35559;-72
2023/12/13 11:00:27;;;;;;;;;;;;;;;8.77;71.14;99013.94;5455094;32;35809;-70
2023/12/13 11:03:37;;;;;;;;;;;;;;;8.12;73.16;99012.03;5461274;32;34200;-86
2023/12/13 11:06:46;;;;;;;;;;;;;;;7.67;75.80;99002.09;5440057;32;35368;-74
2023/12/13 11:09:49;;;;;;;;;;;;;;;8.01;75.27;99001.25;5444063;32;34054;-73
2023/12/13 11:12:52;;;;;;;;;;;;;;;8.08;74.63;98994.78;5463170;32;34352;-73
2023/12/13 11:15:54;;;;;;;;;;;;;;;8.14;73.62;98991.84;5448953;32;34825;-70
2023/12/13 11:18:59;;;;;;;;;;;;;;;8.65;70.92;98982.22;5461278;32;34427;-71
2023/12/13 11:22:05;;;;;;;;;;;;;;;8.03;75.61;98986.31;5432115;32;34330;-70
2023/12/13 11:25:09;;;;;;;;;;;;;;;8.68;72.96;98974.19;5456036;32;34742;-72
2023/12/13 11:28:23;;;;;;;;;;;;;;;8.45;72.52;98971.97;5462590;32;33261;-70
2023/12/13 11:31:26;;;;;;;;;;;;;;;8.05;73.34;98962.66;5439007;32;36042;-76
2023/12/13 11:34:31;;;;;;;;;;;;;;;7.62;77.13;98971.84;5452991;32;34635;-76
2023/12/13 11:37:35;;;;;;;;;;;;;;;7.83;78.03;98963.78;5458320;32;34331;-74
2023/12/13 11:40:41;;;;;;;;;;;;;;;8.20;75.42;98943.56;5459572;32;34918;-71
2023/12/13 11:43:44;;;;;;;;;;;;;;;7.84;75.84;98952.38;5459960;32;35347;-73
2023/12/13 11:46:53;;;;;;;;;;;;;;;7.62;76.52;98961.41;5450382;32;35123;-72
2023/12/13 11:49:56;;;;;;;;;;;;;;;7.76;75.61;98951.94;5455844;32;34850;-71
2023/12/13 11:52:58;;;;;;;;;;;;;;;7.15;79.50;98959.31;5430454;32;34157;-78
2023/12/13 11:56:00;;;;;;;;;;;;;;;8.59;73.60;98953.75;5443627;32;35048;-73
2023/12/13 11:59:02;;;;;;;;;;;;;;;7.51;77.02;98954.06;5447916;32;34156;-79
2023/12/13 12:02:04;;;;;;;;;;;;;;;7.85;76.33;98945.38;5457909;32;36397;-81
2023/12/13 12:05:07;;;;;;;;;;;;;;;8.55;72.35;98946.97;5460835;32;34566;-74
2023/12/13 12:08:11;;;;;;;;;;;;;;;8.43;72.38;98947.63;5443830;32;34250;-79
2023/12/13 12:11:14;;;;;;;;;;;;;;;8.36;71.91;98946.25;5433490;32;35545;-74
2023/12/13 12:14:16;;;;;;;;;;;;;;;7.73;73.39;98951.22;5464429;32;35435;-78
2023/12/13 12:17:19;;;;;;;;;;;;;;;6.65;78.14;98949.47;5464281;32;34112;-78
2023/12/13 12:20:22;;;;;;;;;;;;;;;7.36;77.12;98953.06;5467748;32;34283;-73
2023/12/13 12:23:25;;;;;;;;;;;;;;;6.57;80.33;98968.09;5460851;32;34100;-71
2023/12/13 12:26:27;;;;;;;;;;;;;;;6.57;79.50;98968.09;5441716;32;34485;-74
2023/12/13 12:29:29;;;;;;;;;;;;;;;6.99;78.65;98967.88;5465237;32;34256;-77
2023/12/13 12:32:32;;;;;;;;;;;;;;;7.40;76.68;98977.25;5462664;32;35330;-69
2023/12/13 12:35:34;;;;;;;;;;;;;;;7.29;76.74;98965.59;5466044;32;34880;-79
2023/12/13 12:38:37;;;;;;;;;;;;;;;7.48;77.11;98973.38;5463555;32;35444;-74
2023/12/13 12:41:39;;;;;;;;;;;;;;;7.72;77.42;98973.06;5465571;32;34041;-70
2023/12/13 12:44:41;;;;;;;;;;;;;;;7.41;78.30;98977.22;5461969;32;34524;-74
2023/12/13 12:47:44;;;;;;;;;;;;;;;7.58;77.81;98977.22;5456558;32;34364;-74
2023/12/13 12:50:46;;;;;;;;;;;;;;;7.61;77.76;98978.84;5454992;32;45568;-78
2023/12/13 12:53:48;;;;;;;;;;;;;;;8.35;75.03;98976.81;5462345;32;35453;-70
2023/12/13 12:56:50;;;;;;;;;;;;;;;8.72;72.87;98976.66;5457550;32;36246;-69
2023/12/13 12:59:53;;;;;;;;;;;;;;;8.36;73.97;98970.66;5462337;32;34058;-71
2023/12/13 13:02:55;;;;;;;;;;;;;;;8.45;72.45;98971.13;5459494;32;34327;-72
2023/12/13 13:05:57;;;;;;;;;;;;;;;9.08;70.86;98958.94;5457346;32;34163;-71
2023/12/13 13:09:00;;;;;;;;;;;;;;;8.23;72.45;98955.66;5462387;32;35466;-72
2023/12/13 13:12:02;;;;;;;;;;;;;;;8.60;70.93;98951.97;5450423;32;35234;-74
2023/12/13 13:15:08;;;;;;;;;;;;;;;8.28;73.66;98956.25;5450850;32;34149;-71
2023/12/13 13:18:10;;;;;;;;;;;;;;;8.11;74.96;98962.34;5446099;32;34210;-74
2023/12/13 13:21:12;;;;;;;;;;;;;;;9.18;69.46;98949.59;5460109;32;35616;-66
2023/12/13 13:24:14;;;;;;;;;;;;;;;7.82;75.71;98954.25;5431143;32;34346;-68
2023/12/13 13:27:16;;;;;;;;;;;;;;;7.40;77.96;98946.75;5443065;32;34245;-67
2023/12/13 13:30:29;;;;;;;;;;;;;;;8.18;73.78;98939.31;5450828;32;34168;-70
2023/12/13 13:33:32;;;;;;;;;;;;;;;8.28;73.00;98948.41;5456134;32;34152;-69
2023/12/13 13:36:34;;;;;;;;;;;;;;;8.48;72.62;98945.59;5462425;32;34126;-69
2023/12/13 13:39:36;;;;;;;;;;;;;;;7.74;75.70;98948.56;5446486;32;34278;-73
2023/12/13 13:42:38;;;;;;;;;;;;;;;7.55;77.69;98938.16;5440847;32;37516;-72
2023/12/13 13:45:40;;;;;;;;;;;;;;;7.76;77.67;98928.38;5449221;32;34147;-76
2023/12/13 13:48:42;;;;;;;;;;;;;;;8.64;74.07;98933.41;5423340;32;34707;-77
2023/12/13 13:51:47;;;;;;;;;;;;;;;9.05;70.90;98939.91;5435712;32;35291;-71
2023/12/13 13:55:23;;;;;;;;;;;;;;;9.00;69.37;98937.53;5446905;32;34476;-75
2023/12/13 13:58:17;;;;;;;;;;;;;;;8.49;71.21;98951.69;5443605;32;33304;-71
2023/12/13 14:01:19;;;;;;;;;;;;;;;7.70;75.48;98930.47;5458849;32;34228;-69
2023/12/13 14:04:22;;;;;;;;;;;;;;;8.14;74.68;98934.28;5459627;32;34852;-73
2023/12/13 14:07:24;;;;;;;;;;;;;;;7.82;75.94;98943.78;5449183;32;35528;-70
2023/12/13 14:10:26;;;;;;;;;;;;;;;7.99;76.64;98942.09;5413185;32;35226;-69
2023/12/13 14:13:28;;;;;;;;;;;;;;;8.23;72.88;98943.41;5423127;32;35543;-70
2023/12/13 14:16:30;;;;;;;;;;;;;;;7.67;77.44;98941.94;5423704;32;35391;-72
2023/12/13 14:19:32;;;;;;;;;;;;;;;9.03;70.85;98945.22;5422982;32;33889;-68
2023/12/13 14:22:36;;;;;;;;;;;;;;;9.05;69.62;98940.75;5440327;32;34720;-68
2023/12/13 14:25:42;;;;;;;;;;;;;;;8.51;72.01;98953.31;5437928;32;34151;-74
2023/12/13 14:28:44;;;;;;;;;;;;;;;8.82;70.78;98941.16;5427483;32;34500;-71
2023/12/13 14:31:47;;;;;;;;;;;;;;;8.88;70.29;98946.06;5434436;32;35817;-71
2023/12/13 14:34:49;;;;;;;;;;;;;;;8.93;70.30;98952.75;5429877;32;34894;-76
2023/12/13 14:37:51;;;;;;;;;;;;;;;8.05;73.17;98949.59;5434892;32;34256;-71
2023/12/13 14:40:54;;;;;;;;;;;;;;;8.43;72.93;98947.63;5415153;32;35050;-69
2023/12/13 14:43:56;;;;;;;;;;;;;;;8.57;72.97;98952.16;5414875;32;34781;-72
2023/12/13 14:46:58;;;;;;;;;;;;;;;9.14;70.56;98950.69;5418844;32;35920;-75
2023/12/13 14:50:00;;;;;;;;;;;;;;;9.04;70.68;98962.66;5410080;32;34280;-73
2023/12/13 14:53:03;;;;;;;;;;;;;;;8.93;70.95;98965.84;5433814;32;35935;-74
2023/12/13 14:56:06;;;;;;;;;;;;;;;8.53;72.22;98961.91;5426702;32;34133;-72
2023/12/13 14:59:09;;;;;;;;;;;;;;;7.85;76.75;98961.06;5429636;32;35781;-74
2023/12/13 15:02:12;;;;;;;;;;;;;;;7.58;77.50;98961.53;5435286;32;34917;-77
2023/12/13 15:05:15;;;;;;;;;;;;;;;7.46;79.09;98962.13;5440140;32;34123;-76
2023/12/13 15:08:18;;;;;;;;;;;;;;;7.93;77.52;98952.84;5421602;32;34422;-74
2023/12/13 15:11:20;;;;;;;;;;;;;;;8.01;76.35;98954.16;5424947;32;34353;-76
2023/12/13 15:14:25;;;;;;;;;;;;;;;7.84;78.20;98951.53;5436292;32;34497;-71
2023/12/13 15:17:28;;;;;;;;;;;;;;;7.31;79.19;98947.22;5439848;32;34697;-72
2023/12/13 15:20:30;;;;;;;;;;;;;;;8.12;77.14;98943.13;5423888;32;34281;-74
2023/12/13 15:23:32;;;;;;;;;;;;;;;7.93;76.46;98930.16;5437450;32;35252;-72
2023/12/13 15:26:37;;;;;;;;;;;;;;;8.08;76.20;98947.66;5442550;32;33599;-72
2023/12/13 15:29:40;;;;;;;;;;;;;;;6.95;81.24;98944.56;5448159;32;35782;-78
2023/12/13 15:32:44;;;;;;;;;;;;;;;7.41;79.24;98937.16;5459323;32;34285;-77
2023/12/13 15:35:46;;;;;;;;;;;;;;;7.04;81.45;98945.00;5453306;32;34304;-72
2023/12/13 15:38:48;;;;;;;;;;;;;;;7.72;78.86;98939.06;5456802;32;34312;-69
2023/12/13 15:41:50;;;;;;;;;;;;;;;7.58;78.49;98932.78;5437458;32;35805;-68
2023/12/13 15:44:52;;;;;;;;;;;;;;;7.28;81.83;98924.69;5456057;32;35639;-68
2023/12/13 15:47:55;;;;;;;;;;;;;;;7.54;79.36;98933.03;5447113;32;34753;-68
2023/12/13 15:50:57;;;;;;;;;;;;;;;6.98;81.75;98924.41;5462272;32;34378;-71
2023/12/13 15:53:59;;;;;;;;;;;;;;;7.39;80.73;98921.53;5461580;32;35142;-72
2023/12/13 15:57:01;;;;;;;;;;;;;;;7.32;81.33;98922.75;5459887;32;35183;-69
2023/12/13 16:00:04;;;;;;;;;;;;;;;7.68;80.11;98916.63;5448368;32;35633;-69
2023/12/13 16:03:06;;;;;;;;;;;;;;;8.44;74.49;98917.03;5462298;32;35034;-69
2023/12/13 16:06:08;;;;;;;;;;;;;;;8.37;74.78;98932.22;5461016;32;35476;-71
2023/12/13 16:09:12;;;;;;;;;;;;;;;8.76;72.63;98933.63;5451957;32;34787;-70